sensor_id;sensor_type;location;lat;lon;timestamp;P1;durP1;ratioP1;P2;durP2;ratioP2
37297;SDS011;30517;51.932;4.278;2022-09-09T00:02:13;5.15;;;1.67;;
37297;SDS011;30517;51.932;4.278;2022-09-09T00:07:48;2.85;;;1.20;;
37297;SDS011;30517;51.932;4.278;2022-09-09T00:10:33;4.03;;;1.30;;
37297;SDS011;30517;51.932;4.278;2022-09-09T00:13:22;3.95;;;1.75;;
37297;SDS011;30517;51.932;4.278;2022-09-09T00:16:17;3.78;;;1.70;;
37297;SDS011;30517;51.932;4.278;2022-09-09T00:19:27;3.40;;;1.55;;
37297;SDS011;30517;51.932;4.278;2022-09-09T00:22:26;2.75;;;1.55;;
37297;SDS011;30517;51.932;4.278;2022-09-09T00:25:12;4.13;;;1.80;;
37297;SDS011;30517;51.932;4.278;2022-09-09T00:28:01;3.30;;;1.45;;
37297;SDS011;30517;51.932;4.278;2022-09-09T00:30:42;3.83;;;1.75;;
37297;SDS011;30517;51.932;4.278;2022-09-09T00:33:23;3.50;;;1.33;;
37297;SDS011;30517;51.932;4.278;2022-09-09T00:36:05;4.35;;;1.52;;
37297;SDS011;30517;51.932;4.278;2022-09-09T00:38:55;5.35;;;1.48;;
37297;SDS011;30517;51.932;4.278;2022-09-09T00:41:59;2.92;;;1.13;;
37297;SDS011;30517;51.932;4.278;2022-09-09T00:45:10;3.35;;;1.35;;
37297;SDS011;30517;51.932;4.278;2022-09-09T00:47:54;3.42;;;1.60;;
37297;SDS011;30517;51.932;4.278;2022-09-09T00:50:45;4.72;;;1.40;;
37297;SDS011;30517;51.932;4.278;2022-09-09T00:59:59;3.78;;;1.50;;
37297;SDS011;30517;51.932;4.278;2022-09-09T01:03:17;4.05;;;1.15;;
37297;SDS011;30517;51.932;4.278;2022-09-09T01:12:09;3.38;;;1.40;;
37297;SDS011;30517;51.932;4.278;2022-09-09T01:15:09;4.70;;;1.60;;
37297;SDS011;30517;51.932;4.278;2022-09-09T01:18:07;3.40;;;1.20;;
37297;SDS011;30517;51.932;4.278;2022-09-09T01:23:57;4.00;;;1.33;;
37297;SDS011;30517;51.932;4.278;2022-09-09T01:26:42;3.10;;;1.30;;
37297;SDS011;30517;51.932;4.278;2022-09-09T01:29:24;3.95;;;1.25;;
37297;SDS011;30517;51.932;4.278;2022-09-09T01:38:11;3.17;;;1.35;;
37297;SDS011;30517;51.932;4.278;2022-09-09T01:40:54;3.45;;;1.20;;
37297;SDS011;30517;51.932;4.278;2022-09-09T01:43:35;3.58;;;1.42;;
37297;SDS011;30517;51.932;4.278;2022-09-09T01:46:16;2.45;;;1.20;;
37297;SDS011;30517;51.932;4.278;2022-09-09T01:48:57;2.50;;;1.13;;
37297;SDS011;30517;51.932;4.278;2022-09-09T01:51:41;2.35;;;1.10;;
37297;SDS011;30517;51.932;4.278;2022-09-09T01:54:24;1.88;;;1.08;;
37297;SDS011;30517;51.932;4.278;2022-09-09T01:57:11;2.60;;;1.25;;
37297;SDS011;30517;51.932;4.278;2022-09-09T02:00:03;2.92;;;1.00;;
37297;SDS011;30517;51.932;4.278;2022-09-09T02:03:04;3.33;;;1.23;;
37297;SDS011;30517;51.932;4.278;2022-09-09T02:06:04;2.55;;;1.15;;
37297;SDS011;30517;51.932;4.278;2022-09-09T02:08:49;3.35;;;1.23;;
37297;SDS011;30517;51.932;4.278;2022-09-09T02:11:34;4.22;;;1.20;;
37297;SDS011;30517;51.932;4.278;2022-09-09T02:14:16;3.65;;;1.20;;
37297;SDS011;30517;51.932;4.278;2022-09-09T02:17:07;2.20;;;1.00;;
37297;SDS011;30517;51.932;4.278;2022-09-09T02:19:52;2.17;;;0.80;;
37297;SDS011;30517;51.932;4.278;2022-09-09T02:22:41;2.75;;;1.25;;
37297;SDS011;30517;51.932;4.278;2022-09-09T02:25:25;3.58;;;1.00;;
37297;SDS011;30517;51.932;4.278;2022-09-09T02:28:09;2.85;;;0.82;;
37297;SDS011;30517;51.932;4.278;2022-09-09T02:30:52;1.97;;;0.90;;
37297;SDS011;30517;51.932;4.278;2022-09-09T02:33:42;2.63;;;1.30;;
37297;SDS011;30517;51.932;4.278;2022-09-09T02:36:26;3.65;;;1.30;;
37297;SDS011;30517;51.932;4.278;2022-09-09T02:39:13;1.88;;;0.75;;
37297;SDS011;30517;51.932;4.278;2022-09-09T02:41:55;4.00;;;1.30;;
37297;SDS011;30517;51.932;4.278;2022-09-09T02:44:36;2.30;;;1.00;;
37297;SDS011;30517;51.932;4.278;2022-09-09T02:50:25;3.70;;;0.95;;
37297;SDS011;30517;51.932;4.278;2022-09-09T02:53:13;2.90;;;0.90;;
37297;SDS011;30517;51.932;4.278;2022-09-09T02:55:59;2.42;;;1.00;;
37297;SDS011;30517;51.932;4.278;2022-09-09T02:58:46;2.10;;;0.85;;
37297;SDS011;30517;51.932;4.278;2022-09-09T03:01:27;3.00;;;0.90;;
37297;SDS011;30517;51.932;4.278;2022-09-09T03:04:08;4.90;;;1.20;;
37297;SDS011;30517;51.932;4.278;2022-09-09T03:06:49;1.42;;;0.73;;
37297;SDS011;30517;51.932;4.278;2022-09-09T03:09:30;2.65;;;0.80;;
37297;SDS011;30517;51.932;4.278;2022-09-09T03:12:12;1.75;;;0.93;;
37297;SDS011;30517;51.932;4.278;2022-09-09T03:14:53;1.92;;;0.95;;
37297;SDS011;30517;51.932;4.278;2022-09-09T03:17:34;1.88;;;0.90;;
37297;SDS011;30517;51.932;4.278;2022-09-09T03:20:15;2.63;;;0.90;;
37297;SDS011;30517;51.932;4.278;2022-09-09T03:22:56;1.75;;;0.90;;
37297;SDS011;30517;51.932;4.278;2022-09-09T03:25:37;2.45;;;0.70;;
37297;SDS011;30517;51.932;4.278;2022-09-09T03:28:18;2.90;;;0.80;;
37297;SDS011;30517;51.932;4.278;2022-09-09T03:31:00;4.05;;;1.10;;
37297;SDS011;30517;51.932;4.278;2022-09-09T03:33:42;2.70;;;1.02;;
37297;SDS011;30517;51.932;4.278;2022-09-09T03:36:23;2.30;;;0.98;;
37297;SDS011;30517;51.932;4.278;2022-09-09T03:39:06;1.23;;;0.77;;
37297;SDS011;30517;51.932;4.278;2022-09-09T03:41:47;1.77;;;0.98;;
37297;SDS011;30517;51.932;4.278;2022-09-09T03:44:28;3.20;;;1.20;;
37297;SDS011;30517;51.932;4.278;2022-09-09T03:47:09;2.90;;;1.00;;
37297;SDS011;30517;51.932;4.278;2022-09-09T03:49:49;2.63;;;1.02;;
37297;SDS011;30517;51.932;4.278;2022-09-09T03:52:30;1.83;;;0.80;;
37297;SDS011;30517;51.932;4.278;2022-09-09T03:55:11;2.63;;;1.08;;
37297;SDS011;30517;51.932;4.278;2022-09-09T03:57:52;2.13;;;0.90;;
37297;SDS011;30517;51.932;4.278;2022-09-09T04:00:32;1.60;;;0.70;;
37297;SDS011;30517;51.932;4.278;2022-09-09T04:03:13;2.38;;;0.88;;
37297;SDS011;30517;51.932;4.278;2022-09-09T04:05:56;2.20;;;0.93;;
37297;SDS011;30517;51.932;4.278;2022-09-09T04:08:38;2.60;;;0.93;;
37297;SDS011;30517;51.932;4.278;2022-09-09T04:11:19;2.35;;;0.75;;
37297;SDS011;30517;51.932;4.278;2022-09-09T04:14:00;1.92;;;0.63;;
37297;SDS011;30517;51.932;4.278;2022-09-09T04:16:41;2.28;;;1.00;;
37297;SDS011;30517;51.932;4.278;2022-09-09T04:19:24;4.03;;;1.00;;
37297;SDS011;30517;51.932;4.278;2022-09-09T04:22:05;2.70;;;0.90;;
37297;SDS011;30517;51.932;4.278;2022-09-09T04:24:46;11.15;;;1.67;;
37297;SDS011;30517;51.932;4.278;2022-09-09T04:27:26;6.28;;;1.48;;
37297;SDS011;30517;51.932;4.278;2022-09-09T04:30:07;4.88;;;1.48;;
37297;SDS011;30517;51.932;4.278;2022-09-09T04:32:49;6.38;;;1.63;;
37297;SDS011;30517;51.932;4.278;2022-09-09T04:35:29;3.78;;;1.25;;
37297;SDS011;30517;51.932;4.278;2022-09-09T04:38:11;3.83;;;1.13;;
37297;SDS011;30517;51.932;4.278;2022-09-09T04:40:51;3.83;;;1.10;;
37297;SDS011;30517;51.932;4.278;2022-09-09T04:43:34;6.03;;;1.23;;
37297;SDS011;30517;51.932;4.278;2022-09-09T04:46:15;4.30;;;1.05;;
37297;SDS011;30517;51.932;4.278;2022-09-09T04:48:57;3.00;;;1.10;;
37297;SDS011;30517;51.932;4.278;2022-09-09T04:51:38;7.53;;;1.45;;
37297;SDS011;30517;51.932;4.278;2022-09-09T04:54:19;4.00;;;1.30;;
37297;SDS011;30517;51.932;4.278;2022-09-09T04:56:59;4.57;;;1.00;;
37297;SDS011;30517;51.932;4.278;2022-09-09T04:59:40;3.03;;;0.98;;
37297;SDS011;30517;51.932;4.278;2022-09-09T05:02:21;4.15;;;1.02;;
37297;SDS011;30517;51.932;4.278;2022-09-09T05:05:02;3.78;;;1.10;;
37297;SDS011;30517;51.932;4.278;2022-09-09T05:07:43;2.90;;;1.10;;
37297;SDS011;30517;51.932;4.278;2022-09-09T05:10:23;1.92;;;0.90;;
37297;SDS011;30517;51.932;4.278;2022-09-09T05:13:05;2.15;;;1.00;;
37297;SDS011;30517;51.932;4.278;2022-09-09T05:15:53;2.85;;;1.10;;
37297;SDS011;30517;51.932;4.278;2022-09-09T05:18:34;2.67;;;1.00;;
37297;SDS011;30517;51.932;4.278;2022-09-09T05:21:16;3.28;;;1.10;;
37297;SDS011;30517;51.932;4.278;2022-09-09T05:23:57;3.97;;;1.00;;
37297;SDS011;30517;51.932;4.278;2022-09-09T05:26:40;3.78;;;0.82;;
37297;SDS011;30517;51.932;4.278;2022-09-09T05:29:21;3.42;;;1.00;;
37297;SDS011;30517;51.932;4.278;2022-09-09T05:32:01;3.15;;;0.90;;
37297;SDS011;30517;51.932;4.278;2022-09-09T05:34:43;3.25;;;1.05;;
37297;SDS011;30517;51.932;4.278;2022-09-09T05:37:24;2.72;;;1.05;;
37297;SDS011;30517;51.932;4.278;2022-09-09T05:40:05;5.18;;;1.05;;
37297;SDS011;30517;51.932;4.278;2022-09-09T05:42:46;3.88;;;0.98;;
37297;SDS011;30517;51.932;4.278;2022-09-09T05:45:27;4.30;;;1.27;;
37297;SDS011;30517;51.932;4.278;2022-09-09T05:48:08;3.95;;;1.25;;
37297;SDS011;30517;51.932;4.278;2022-09-09T05:50:52;3.95;;;0.90;;
37297;SDS011;30517;51.932;4.278;2022-09-09T05:53:34;4.28;;;1.00;;
37297;SDS011;30517;51.932;4.278;2022-09-09T05:56:19;3.35;;;1.02;;
37297;SDS011;30517;51.932;4.278;2022-09-09T05:59:02;2.97;;;1.00;;
37297;SDS011;30517;51.932;4.278;2022-09-09T06:01:43;6.22;;;1.40;;
37297;SDS011;30517;51.932;4.278;2022-09-09T06:04:25;3.65;;;0.80;;
37297;SDS011;30517;51.932;4.278;2022-09-09T06:07:06;2.88;;;0.68;;
37297;SDS011;30517;51.932;4.278;2022-09-09T06:09:46;2.88;;;0.80;;
37297;SDS011;30517;51.932;4.278;2022-09-09T06:12:27;2.08;;;0.70;;
37297;SDS011;30517;51.932;4.278;2022-09-09T06:15:08;2.92;;;1.00;;
37297;SDS011;30517;51.932;4.278;2022-09-09T06:17:53;3.90;;;1.02;;
37297;SDS011;30517;51.932;4.278;2022-09-09T06:20:35;5.57;;;1.10;;
37297;SDS011;30517;51.932;4.278;2022-09-09T06:23:16;4.22;;;1.15;;
37297;SDS011;30517;51.932;4.278;2022-09-09T06:26:11;2.65;;;1.08;;
37297;SDS011;30517;51.932;4.278;2022-09-09T06:28:54;3.75;;;1.15;;
37297;SDS011;30517;51.932;4.278;2022-09-09T06:31:37;7.72;;;2.15;;
37297;SDS011;30517;51.932;4.278;2022-09-09T06:34:18;3.40;;;1.48;;
37297;SDS011;30517;51.932;4.278;2022-09-09T06:36:59;8.98;;;1.77;;
37297;SDS011;30517;51.932;4.278;2022-09-09T06:39:40;4.60;;;1.35;;
37297;SDS011;30517;51.932;4.278;2022-09-09T06:42:21;5.82;;;1.40;;
37297;SDS011;30517;51.932;4.278;2022-09-09T06:45:02;5.05;;;1.63;;
37297;SDS011;30517;51.932;4.278;2022-09-09T06:47:43;4.80;;;1.60;;
37297;SDS011;30517;51.932;4.278;2022-09-09T06:50:24;4.63;;;1.50;;
37297;SDS011;30517;51.932;4.278;2022-09-09T06:53:05;4.15;;;1.30;;
37297;SDS011;30517;51.932;4.278;2022-09-09T06:55:46;3.90;;;1.38;;
37297;SDS011;30517;51.932;4.278;2022-09-09T06:58:26;3.42;;;1.48;;
37297;SDS011;30517;51.932;4.278;2022-09-09T07:01:08;6.65;;;1.52;;
37297;SDS011;30517;51.932;4.278;2022-09-09T07:03:50;4.18;;;1.33;;
37297;SDS011;30517;51.932;4.278;2022-09-09T07:06:40;4.90;;;1.45;;
37297;SDS011;30517;51.932;4.278;2022-09-09T07:09:23;17.95;;;3.00;;
37297;SDS011;30517;51.932;4.278;2022-09-09T07:12:04;6.25;;;1.98;;
37297;SDS011;30517;51.932;4.278;2022-09-09T07:14:46;7.90;;;2.00;;
37297;SDS011;30517;51.932;4.278;2022-09-09T07:17:26;5.50;;;1.83;;
37297;SDS011;30517;51.932;4.278;2022-09-09T07:20:09;5.13;;;2.10;;
37297;SDS011;30517;51.932;4.278;2022-09-09T07:22:49;9.07;;;2.38;;
37297;SDS011;30517;51.932;4.278;2022-09-09T07:25:30;4.65;;;1.55;;
37297;SDS011;30517;51.932;4.278;2022-09-09T07:28:11;4.72;;;1.65;;
37297;SDS011;30517;51.932;4.278;2022-09-09T07:30:53;6.50;;;2.38;;
37297;SDS011;30517;51.932;4.278;2022-09-09T07:33:42;7.43;;;2.20;;
37297;SDS011;30517;51.932;4.278;2022-09-09T07:36:28;6.18;;;1.90;;
37297;SDS011;30517;51.932;4.278;2022-09-09T07:39:11;6.00;;;1.73;;
37297;SDS011;30517;51.932;4.278;2022-09-09T07:41:53;4.80;;;1.80;;
37297;SDS011;30517;51.932;4.278;2022-09-09T07:44:34;5.75;;;1.95;;
37297;SDS011;30517;51.932;4.278;2022-09-09T07:47:16;6.03;;;1.95;;
37297;SDS011;30517;51.932;4.278;2022-09-09T07:49:57;4.28;;;1.73;;
37297;SDS011;30517;51.932;4.278;2022-09-09T07:52:38;5.30;;;1.33;;
37297;SDS011;30517;51.932;4.278;2022-09-09T07:55:20;4.05;;;1.45;;
37297;SDS011;30517;51.932;4.278;2022-09-09T07:58:03;6.65;;;1.98;;
37297;SDS011;30517;51.932;4.278;2022-09-09T08:00:44;2.83;;;1.55;;
37297;SDS011;30517;51.932;4.278;2022-09-09T08:03:25;5.43;;;1.73;;
37297;SDS011;30517;51.932;4.278;2022-09-09T08:06:07;3.78;;;1.40;;
37297;SDS011;30517;51.932;4.278;2022-09-09T08:08:52;5.63;;;1.60;;
37297;SDS011;30517;51.932;4.278;2022-09-09T08:11:34;3.65;;;1.40;;
37297;SDS011;30517;51.932;4.278;2022-09-09T08:14:16;6.88;;;1.80;;
37297;SDS011;30517;51.932;4.278;2022-09-09T08:16:57;3.35;;;1.35;;
37297;SDS011;30517;51.932;4.278;2022-09-09T08:19:39;4.07;;;1.25;;
37297;SDS011;30517;51.932;4.278;2022-09-09T08:22:20;3.67;;;1.60;;
37297;SDS011;30517;51.932;4.278;2022-09-09T08:25:02;5.63;;;1.70;;
37297;SDS011;30517;51.932;4.278;2022-09-09T08:27:46;4.57;;;1.50;;
37297;SDS011;30517;51.932;4.278;2022-09-09T08:30:27;4.38;;;1.58;;
37297;SDS011;30517;51.932;4.278;2022-09-09T08:33:08;5.45;;;1.38;;
37297;SDS011;30517;51.932;4.278;2022-09-09T08:35:50;4.50;;;1.70;;
37297;SDS011;30517;51.932;4.278;2022-09-09T08:38:32;4.20;;;1.70;;
37297;SDS011;30517;51.932;4.278;2022-09-09T08:44:25;5.28;;;1.65;;
37297;SDS011;30517;51.932;4.278;2022-09-09T08:47:29;7.28;;;1.55;;
37297;SDS011;30517;51.932;4.278;2022-09-09T08:50:36;6.75;;;1.65;;
37297;SDS011;30517;51.932;4.278;2022-09-09T08:53:28;6.53;;;1.67;;
37297;SDS011;30517;51.932;4.278;2022-09-09T08:56:16;5.63;;;1.90;;
37297;SDS011;30517;51.932;4.278;2022-09-09T08:59:02;6.07;;;1.50;;
37297;SDS011;30517;51.932;4.278;2022-09-09T09:04:56;3.92;;;1.73;;
37297;SDS011;30517;51.932;4.278;2022-09-09T09:07:55;2.70;;;1.35;;
37297;SDS011;30517;51.932;4.278;2022-09-09T09:11:04;7.40;;;1.83;;
37297;SDS011;30517;51.932;4.278;2022-09-09T09:16:34;4.80;;;1.63;;
37297;SDS011;30517;51.932;4.278;2022-09-09T09:19:21;6.72;;;1.88;;
37297;SDS011;30517;51.932;4.278;2022-09-09T09:22:16;3.95;;;1.83;;
37297;SDS011;30517;51.932;4.278;2022-09-09T09:27:58;4.00;;;1.73;;
37297;SDS011;30517;51.932;4.278;2022-09-09T09:30:42;4.53;;;1.50;;
37297;SDS011;30517;51.932;4.278;2022-09-09T09:36:34;3.47;;;1.30;;
37297;SDS011;30517;51.932;4.278;2022-09-09T09:39:32;4.57;;;1.67;;
37297;SDS011;30517;51.932;4.278;2022-09-09T09:42:19;5.32;;;1.60;;
37297;SDS011;30517;51.932;4.278;2022-09-09T09:48:12;5.72;;;1.48;;
37297;SDS011;30517;51.932;4.278;2022-09-09T09:50:54;4.45;;;1.50;;
37297;SDS011;30517;51.932;4.278;2022-09-09T09:56:26;7.05;;;1.85;;
37297;SDS011;30517;51.932;4.278;2022-09-09T10:02:21;3.90;;;1.40;;
37297;SDS011;30517;51.932;4.278;2022-09-09T10:05:14;3.15;;;1.40;;
37297;SDS011;30517;51.932;4.278;2022-09-09T10:08:00;3.90;;;1.55;;
37297;SDS011;30517;51.932;4.278;2022-09-09T10:20:00;4.18;;;1.38;;
37297;SDS011;30517;51.932;4.278;2022-09-09T10:22:50;5.20;;;1.40;;
37297;SDS011;30517;51.932;4.278;2022-09-09T10:31:42;4.97;;;1.40;;
37297;SDS011;30517;51.932;4.278;2022-09-09T10:37:50;5.10;;;1.52;;
37297;SDS011;30517;51.932;4.278;2022-09-09T10:43:46;4.25;;;1.73;;
37297;SDS011;30517;51.932;4.278;2022-09-09T10:46:51;3.42;;;1.48;;
37297;SDS011;30517;51.932;4.278;2022-09-09T10:49:52;3.95;;;1.63;;
37297;SDS011;30517;51.932;4.278;2022-09-09T10:55:43;4.50;;;1.15;;
37297;SDS011;30517;51.932;4.278;2022-09-09T10:58:31;3.05;;;1.38;;
37297;SDS011;30517;51.932;4.278;2022-09-09T11:01:20;5.03;;;1.52;;
37297;SDS011;30517;51.932;4.278;2022-09-09T11:06:58;6.43;;;2.28;;
37297;SDS011;30517;51.932;4.278;2022-09-09T11:09:45;2.70;;;1.45;;
37297;SDS011;30517;51.932;4.278;2022-09-09T11:12:33;4.68;;;1.73;;
37297;SDS011;30517;51.932;4.278;2022-09-09T11:15:20;4.70;;;1.52;;
37297;SDS011;30517;51.932;4.278;2022-09-09T11:18:11;4.20;;;1.90;;
37297;SDS011;30517;51.932;4.278;2022-09-09T11:20:59;2.65;;;1.27;;
37297;SDS011;30517;51.932;4.278;2022-09-09T11:23:52;4.60;;;1.55;;
37297;SDS011;30517;51.932;4.278;2022-09-09T11:26:38;4.03;;;1.37;;
37297;SDS011;30517;51.932;4.278;2022-09-09T11:29:49;5.38;;;1.67;;
37297;SDS011;30517;51.932;4.278;2022-09-09T11:32:59;4.30;;;1.20;;
37297;SDS011;30517;51.932;4.278;2022-09-09T11:36:03;3.72;;;1.45;;
37297;SDS011;30517;51.932;4.278;2022-09-09T11:38:52;3.92;;;1.48;;
37297;SDS011;30517;51.932;4.278;2022-09-09T11:41:36;3.47;;;1.40;;
37297;SDS011;30517;51.932;4.278;2022-09-09T11:44:26;3.70;;;1.50;;
37297;SDS011;30517;51.932;4.278;2022-09-09T11:47:50;5.47;;;1.48;;
37297;SDS011;30517;51.932;4.278;2022-09-09T11:58:54;3.97;;;1.55;;
37297;SDS011;30517;51.932;4.278;2022-09-09T12:01:45;3.83;;;1.40;;
37297;SDS011;30517;51.932;4.278;2022-09-09T12:04:37;6.70;;;1.48;;
37297;SDS011;30517;51.932;4.278;2022-09-09T12:07:26;3.30;;;1.20;;
37297;SDS011;30517;51.932;4.278;2022-09-09T12:10:30;6.97;;;1.80;;
37297;SDS011;30517;51.932;4.278;2022-09-09T12:13:16;4.07;;;1.85;;
37297;SDS011;30517;51.932;4.278;2022-09-09T12:15:59;1.80;;;0.95;;
37297;SDS011;30517;51.932;4.278;2022-09-09T12:18:42;4.57;;;1.40;;
37297;SDS011;30517;51.932;4.278;2022-09-09T12:24:13;4.18;;;1.25;;
37297;SDS011;30517;51.932;4.278;2022-09-09T12:27:15;4.97;;;1.45;;
37297;SDS011;30517;51.932;4.278;2022-09-09T12:30:14;3.63;;;1.40;;
37297;SDS011;30517;51.932;4.278;2022-09-09T12:33:06;3.67;;;1.25;;
37297;SDS011;30517;51.932;4.278;2022-09-09T12:35:57;3.83;;;1.20;;
37297;SDS011;30517;51.932;4.278;2022-09-09T12:38:41;2.75;;;1.10;;
37297;SDS011;30517;51.932;4.278;2022-09-09T12:41:24;4.00;;;1.40;;
37297;SDS011;30517;51.932;4.278;2022-09-09T12:44:09;2.60;;;1.05;;
37297;SDS011;30517;51.932;4.278;2022-09-09T12:46:50;3.92;;;1.23;;
37297;SDS011;30517;51.932;4.278;2022-09-09T12:49:36;4.28;;;1.27;;
37297;SDS011;30517;51.932;4.278;2022-09-09T12:52:26;4.93;;;1.25;;
37297;SDS011;30517;51.932;4.278;2022-09-09T12:55:16;3.97;;;1.20;;
37297;SDS011;30517;51.932;4.278;2022-09-09T12:58:00;4.43;;;1.40;;
37297;SDS011;30517;51.932;4.278;2022-09-09T13:00:51;2.15;;;0.80;;
37297;SDS011;30517;51.932;4.278;2022-09-09T13:03:41;4.70;;;1.25;;
37297;SDS011;30517;51.932;4.278;2022-09-09T13:06:28;4.47;;;1.17;;
37297;SDS011;30517;51.932;4.278;2022-09-09T13:09:10;3.87;;;1.20;;
37297;SDS011;30517;51.932;4.278;2022-09-09T13:11:52;1.77;;;0.82;;
37297;SDS011;30517;51.932;4.278;2022-09-09T13:14:36;3.45;;;1.10;;
37297;SDS011;30517;51.932;4.278;2022-09-09T13:17:21;5.50;;;1.27;;
37297;SDS011;30517;51.932;4.278;2022-09-09T13:20:16;3.53;;;1.17;;
37297;SDS011;30517;51.932;4.278;2022-09-09T13:22:58;3.13;;;1.08;;
37297;SDS011;30517;51.932;4.278;2022-09-09T13:25:39;10.10;;;1.83;;
37297;SDS011;30517;51.932;4.278;2022-09-09T13:28:21;7.70;;;1.80;;
37297;SDS011;30517;51.932;4.278;2022-09-09T13:31:05;11.95;;;1.95;;
37297;SDS011;30517;51.932;4.278;2022-09-09T13:34:00;4.07;;;1.45;;
37297;SDS011;30517;51.932;4.278;2022-09-09T13:36:54;6.15;;;1.40;;
37297;SDS011;30517;51.932;4.278;2022-09-09T13:39:50;7.80;;;1.52;;
37297;SDS011;30517;51.932;4.278;2022-09-09T13:42:41;5.60;;;1.50;;
37297;SDS011;30517;51.932;4.278;2022-09-09T13:45:23;4.88;;;1.38;;
37297;SDS011;30517;51.932;4.278;2022-09-09T13:48:10;3.88;;;1.20;;
37297;SDS011;30517;51.932;4.278;2022-09-09T13:54:18;10.10;;;1.63;;
37297;SDS011;30517;51.932;4.278;2022-09-09T13:56:59;5.35;;;1.45;;
37297;SDS011;30517;51.932;4.278;2022-09-09T13:59:41;6.30;;;1.55;;
37297;SDS011;30517;51.932;4.278;2022-09-09T14:02:22;4.13;;;1.25;;
37297;SDS011;30517;51.932;4.278;2022-09-09T14:05:04;4.40;;;1.50;;
37297;SDS011;30517;51.932;4.278;2022-09-09T14:07:45;3.35;;;1.10;;
37297;SDS011;30517;51.932;4.278;2022-09-09T14:10:26;7.43;;;1.15;;
37297;SDS011;30517;51.932;4.278;2022-09-09T14:13:07;3.92;;;1.38;;
37297;SDS011;30517;51.932;4.278;2022-09-09T14:15:48;4.40;;;1.25;;
37297;SDS011;30517;51.932;4.278;2022-09-09T14:18:29;3.63;;;1.10;;
37297;SDS011;30517;51.932;4.278;2022-09-09T14:21:10;3.88;;;1.20;;
37297;SDS011;30517;51.932;4.278;2022-09-09T14:23:52;3.25;;;1.20;;
37297;SDS011;30517;51.932;4.278;2022-09-09T14:26:33;3.90;;;1.10;;
37297;SDS011;30517;51.932;4.278;2022-09-09T14:29:14;3.85;;;1.20;;
37297;SDS011;30517;51.932;4.278;2022-09-09T14:31:55;4.68;;;1.50;;
37297;SDS011;30517;51.932;4.278;2022-09-09T14:34:35;4.93;;;1.20;;
37297;SDS011;30517;51.932;4.278;2022-09-09T14:37:17;3.65;;;1.17;;
37297;SDS011;30517;51.932;4.278;2022-09-09T14:39:58;3.20;;;1.02;;
37297;SDS011;30517;51.932;4.278;2022-09-09T14:42:39;4.35;;;1.20;;
37297;SDS011;30517;51.932;4.278;2022-09-09T14:45:20;4.07;;;1.25;;
37297;SDS011;30517;51.932;4.278;2022-09-09T14:48:01;4.38;;;1.30;;
37297;SDS011;30517;51.932;4.278;2022-09-09T14:50:42;4.22;;;1.30;;
37297;SDS011;30517;51.932;4.278;2022-09-09T14:53:23;3.47;;;1.08;;
37297;SDS011;30517;51.932;4.278;2022-09-09T14:56:08;4.80;;;1.20;;
37297;SDS011;30517;51.932;4.278;2022-09-09T14:58:55;3.88;;;1.35;;
37297;SDS011;30517;51.932;4.278;2022-09-09T15:01:37;4.32;;;1.10;;
37297;SDS011;30517;51.932;4.278;2022-09-09T15:04:18;5.18;;;1.30;;
37297;SDS011;30517;51.932;4.278;2022-09-09T15:06:59;3.78;;;0.93;;
37297;SDS011;30517;51.932;4.278;2022-09-09T15:09:40;2.08;;;0.80;;
37297;SDS011;30517;51.932;4.278;2022-09-09T15:12:21;2.40;;;0.90;;
37297;SDS011;30517;51.932;4.278;2022-09-09T15:15:02;2.95;;;0.90;;
37297;SDS011;30517;51.932;4.278;2022-09-09T15:17:43;2.80;;;1.08;;
37297;SDS011;30517;51.932;4.278;2022-09-09T15:20:24;2.80;;;1.05;;
37297;SDS011;30517;51.932;4.278;2022-09-09T15:23:05;2.53;;;0.90;;
37297;SDS011;30517;51.932;4.278;2022-09-09T15:25:52;2.20;;;0.90;;
37297;SDS011;30517;51.932;4.278;2022-09-09T15:28:36;2.88;;;0.90;;
37297;SDS011;30517;51.932;4.278;2022-09-09T15:31:21;2.83;;;1.08;;
37297;SDS011;30517;51.932;4.278;2022-09-09T15:34:08;3.55;;;1.30;;
37297;SDS011;30517;51.932;4.278;2022-09-09T15:36:49;4.40;;;2.08;;
37297;SDS011;30517;51.932;4.278;2022-09-09T15:39:29;6.00;;;1.40;;
37297;SDS011;30517;51.932;4.278;2022-09-09T15:42:10;4.43;;;1.00;;
37297;SDS011;30517;51.932;4.278;2022-09-09T15:44:51;2.03;;;1.00;;
37297;SDS011;30517;51.932;4.278;2022-09-09T15:47:32;2.50;;;1.10;;
37297;SDS011;30517;51.932;4.278;2022-09-09T15:50:13;2.35;;;0.82;;
37297;SDS011;30517;51.932;4.278;2022-09-09T15:52:55;4.63;;;1.30;;
37297;SDS011;30517;51.932;4.278;2022-09-09T15:55:36;4.80;;;1.40;;
37297;SDS011;30517;51.932;4.278;2022-09-09T15:58:16;4.78;;;1.27;;
37297;SDS011;30517;51.932;4.278;2022-09-09T16:01:03;2.08;;;0.98;;
37297;SDS011;30517;51.932;4.278;2022-09-09T16:03:45;2.78;;;1.08;;
37297;SDS011;30517;51.932;4.278;2022-09-09T16:06:27;2.88;;;1.02;;
37297;SDS011;30517;51.932;4.278;2022-09-09T16:09:09;3.97;;;1.42;;
37297;SDS011;30517;51.932;4.278;2022-09-09T16:11:50;3.42;;;1.58;;
37297;SDS011;30517;51.932;4.278;2022-09-09T16:14:32;3.50;;;1.63;;
37297;SDS011;30517;51.932;4.278;2022-09-09T16:19:56;3.22;;;1.20;;
37297;SDS011;30517;51.932;4.278;2022-09-09T16:22:37;2.45;;;1.15;;
37297;SDS011;30517;51.932;4.278;2022-09-09T16:25:18;3.20;;;1.13;;
37297;SDS011;30517;51.932;4.278;2022-09-09T16:27:59;3.58;;;1.50;;
37297;SDS011;30517;51.932;4.278;2022-09-09T16:30:39;3.75;;;1.50;;
37297;SDS011;30517;51.932;4.278;2022-09-09T16:33:20;4.00;;;1.73;;
37297;SDS011;30517;51.932;4.278;2022-09-09T16:36:09;4.30;;;1.60;;
37297;SDS011;30517;51.932;4.278;2022-09-09T16:38:53;3.72;;;1.50;;
37297;SDS011;30517;51.932;4.278;2022-09-09T16:41:35;2.50;;;1.25;;
37297;SDS011;30517;51.932;4.278;2022-09-09T16:44:17;2.45;;;1.20;;
37297;SDS011;30517;51.932;4.278;2022-09-09T16:46:59;4.68;;;1.58;;
37297;SDS011;30517;51.932;4.278;2022-09-09T16:49:40;2.47;;;1.27;;
37297;SDS011;30517;51.932;4.278;2022-09-09T16:52:21;3.40;;;1.23;;
37297;SDS011;30517;51.932;4.278;2022-09-09T16:55:02;2.65;;;1.45;;
37297;SDS011;30517;51.932;4.278;2022-09-09T16:57:42;3.80;;;1.58;;
37297;SDS011;30517;51.932;4.278;2022-09-09T17:00:23;2.78;;;1.60;;
37297;SDS011;30517;51.932;4.278;2022-09-09T17:03:04;3.25;;;1.50;;
37297;SDS011;30517;51.932;4.278;2022-09-09T17:05:45;3.33;;;1.60;;
37297;SDS011;30517;51.932;4.278;2022-09-09T17:08:26;2.70;;;1.45;;
37297;SDS011;30517;51.932;4.278;2022-09-09T17:13:56;4.95;;;1.60;;
37297;SDS011;30517;51.932;4.278;2022-09-09T17:16:38;5.25;;;2.00;;
37297;SDS011;30517;51.932;4.278;2022-09-09T17:19:19;3.42;;;1.50;;
37297;SDS011;30517;51.932;4.278;2022-09-09T17:22:00;3.53;;;1.20;;
37297;SDS011;30517;51.932;4.278;2022-09-09T17:24:41;3.70;;;1.50;;
37297;SDS011;30517;51.932;4.278;2022-09-09T17:27:23;2.38;;;1.20;;
37297;SDS011;30517;51.932;4.278;2022-09-09T17:30:04;4.13;;;1.52;;
37297;SDS011;30517;51.932;4.278;2022-09-09T17:32:45;2.92;;;1.13;;
37297;SDS011;30517;51.932;4.278;2022-09-09T17:35:26;2.92;;;1.23;;
37297;SDS011;30517;51.932;4.278;2022-09-09T17:38:07;2.58;;;1.48;;
37297;SDS011;30517;51.932;4.278;2022-09-09T17:40:48;3.92;;;1.58;;
37297;SDS011;30517;51.932;4.278;2022-09-09T17:43:29;2.85;;;1.40;;
37297;SDS011;30517;51.932;4.278;2022-09-09T17:46:11;3.65;;;1.38;;
37297;SDS011;30517;51.932;4.278;2022-09-09T17:48:57;4.03;;;1.40;;
37297;SDS011;30517;51.932;4.278;2022-09-09T17:51:40;2.70;;;1.30;;
37297;SDS011;30517;51.932;4.278;2022-09-09T17:54:22;3.15;;;1.23;;
37297;SDS011;30517;51.932;4.278;2022-09-09T17:57:03;4.15;;;1.65;;
37297;SDS011;30517;51.932;4.278;2022-09-09T17:59:44;3.85;;;1.27;;
37297;SDS011;30517;51.932;4.278;2022-09-09T18:02:25;4.22;;;1.65;;
37297;SDS011;30517;51.932;4.278;2022-09-09T18:05:06;4.90;;;1.60;;
37297;SDS011;30517;51.932;4.278;2022-09-09T18:07:47;3.65;;;1.65;;
37297;SDS011;30517;51.932;4.278;2022-09-09T18:10:28;4.07;;;1.52;;
37297;SDS011;30517;51.932;4.278;2022-09-09T18:13:09;2.47;;;1.20;;